createdAt,value
2022-12-09T00:00:52.614Z,19.5
2022-12-09T00:05:52.664Z,19.8
2022-12-09T00:10:52.744Z,20.5
2022-12-09T00:15:52.663Z,20.5
2022-12-09T00:20:52.630Z,20.6
2022-12-09T00:25:52.643Z,21.8
2022-12-09T00:30:52.813Z,22.6
2022-12-09T00:35:52.635Z,22.9
2022-12-09T00:40:52.828Z,23.7
2022-12-09T00:46:09.450Z,23.8
2022-12-09T00:50:52.854Z,23.9
2022-12-09T00:55:52.720Z,26
2022-12-09T01:00:52.671Z,27.2
2022-12-09T01:05:52.670Z,28.3
2022-12-09T01:10:52.701Z,28.4
2022-12-09T01:17:15.771Z,28.5
2022-12-09T01:20:53.167Z,28.5
2022-12-09T01:25:53.263Z,28.5
2022-12-09T01:30:53.028Z,31.7
2022-12-09T01:35:52.706Z,31.7
2022-12-09T01:40:52.994Z,32.3
2022-12-09T01:46:08.916Z,32.3
2022-12-09T01:50:52.971Z,31.7
2022-12-09T01:55:52.924Z,28.8
2022-12-09T02:00:52.742Z,28.8
2022-12-09T02:05:52.804Z,28.2
2022-12-09T02:10:52.867Z,28.8
2022-12-09T02:15:52.762Z,28.8
2022-12-09T02:20:52.725Z,28.8
2022-12-09T02:25:52.739Z,30.4
2022-12-09T02:30:52.921Z,30.4
2022-12-09T02:35:52.676Z,30.9
2022-12-09T02:40:52.991Z,30.9
2022-12-09T02:46:03.686Z,30.9
2022-12-09T02:50:52.812Z,29.4
2022-12-09T02:55:52.713Z,29.4
2022-12-09T03:00:53.014Z,29.4
2022-12-09T03:05:52.747Z,29.5
2022-12-09T03:10:52.859Z,29.5
2022-12-09T03:15:52.989Z,30.3
2022-12-09T03:20:52.696Z,31.7
2022-12-09T03:25:52.682Z,31.7
2022-12-09T03:30:52.674Z,31.7
2022-12-09T03:35:52.992Z,30.3
2022-12-09T03:40:52.696Z,30
2022-12-09T03:46:08.385Z,29.5
2022-12-09T03:50:52.705Z,28.7
2022-12-09T03:55:52.785Z,28.3
2022-12-09T04:00:52.766Z,28.7
2022-12-09T04:05:52.986Z,29.3
2022-12-09T04:10:52.730Z,28.7
2022-12-09T04:15:52.939Z,26.3
2022-12-09T04:20:52.992Z,26.2
2022-12-09T04:25:52.968Z,25.6
2022-12-09T04:30:52.880Z,25.6
2022-12-09T04:35:52.785Z,25.6
2022-12-09T04:40:52.925Z,25.6
2022-12-09T04:46:10.313Z,26.2
2022-12-09T04:50:52.735Z,26.5
2022-12-09T04:55:52.842Z,26.5
2022-12-09T05:00:52.763Z,26.5
2022-12-09T05:05:53.357Z,28.6
2022-12-09T05:10:53.152Z,28.6
2022-12-09T05:15:52.796Z,28.6
2022-12-09T05:20:52.944Z,29.9
2022-12-09T05:25:52.928Z,29.9
2022-12-09T05:30:52.818Z,29.9
2022-12-09T05:35:54.197Z,29.9
2022-12-09T05:40:52.711Z,26
2022-12-09T05:46:11.563Z,25.8
2022-12-09T05:50:53.256Z,25
2022-12-09T05:55:53.202Z,25
2022-12-09T06:00:52.719Z,25
2022-12-09T06:05:53.375Z,26
2022-12-09T06:10:53.081Z,26.1
2022-12-09T06:15:53.191Z,26.8
2022-12-09T06:20:52.967Z,26.8
2022-12-09T06:25:53.068Z,26.8
2022-12-09T06:30:52.925Z,26.8
2022-12-09T06:35:52.870Z,26.1
2022-12-09T06:40:52.699Z,26.1
2022-12-09T06:51:01.136Z,26.4
2022-12-09T06:55:53.033Z,29.55
2022-12-09T07:00:53.089Z,29.5
2022-12-09T07:15:53.157Z,24.5
2022-12-09T07:20:53.019Z,24.35
2022-12-09T07:25:52.784Z,24.5
2022-12-09T07:30:53.195Z,26
2022-12-09T07:35:52.780Z,27.5
2022-12-09T07:40:52.830Z,28.95
2022-12-09T07:45:52.924Z,27.5
2022-12-09T07:50:53.213Z,27.5
2022-12-09T07:55:52.862Z,28.2
2022-12-09T08:00:52.825Z,28.2
2022-12-09T08:05:52.978Z,26.6
2022-12-09T08:10:53.201Z,26.1
2022-12-09T08:15:53.008Z,25.4
2022-12-09T08:20:53.423Z,25.4
2022-12-09T08:25:52.934Z,25.4
2022-12-09T08:30:53.285Z,25.4
2022-12-09T08:35:52.950Z,26.1
2022-12-09T08:40:52.944Z,29.6
2022-12-09T08:45:53.171Z,33.7
2022-12-09T08:50:52.913Z,35.2
2022-12-09T08:55:52.810Z,36
2022-12-09T09:00:53.336Z,36.3
2022-12-09T09:05:53.222Z,36.3
2022-12-09T09:10:52.821Z,38.8
2022-12-09T09:15:53.314Z,41.2
2022-12-09T09:20:53.109Z,41.2
2022-12-09T09:25:52.953Z,41.2
2022-12-09T09:30:53.469Z,44.1
2022-12-09T09:35:53.017Z,44.1
2022-12-09T09:40:52.869Z,41.2
2022-12-09T09:45:52.940Z,41.2
2022-12-09T09:50:53.078Z,47.4
2022-12-09T09:55:52.860Z,47.4
2022-12-09T10:00:53.347Z,47.4
2022-12-09T10:10:53.551Z,29.2
2022-12-09T10:15:52.982Z,31.05
2022-12-09T10:20:52.953Z,32.9
2022-12-09T10:25:53.763Z,31.05
2022-12-09T10:30:53.026Z,32
2022-12-09T10:35:52.893Z,30.6
2022-12-09T10:40:52.993Z,29.2
2022-12-09T10:46:18.253Z,27.6
2022-12-09T10:50:53.172Z,26.6
2022-12-09T10:55:53.225Z,25.9
2022-12-09T11:00:52.908Z,25.2
2022-12-09T11:05:52.915Z,23.9
2022-12-09T11:10:53.539Z,23.6
2022-12-09T11:15:52.839Z,22.9
2022-12-09T11:20:53.390Z,21
2022-12-09T11:25:53.106Z,22.9
2022-12-09T11:31:20.368Z,19.7
2022-12-09T11:35:53.018Z,19.3
2022-12-09T11:40:52.875Z,19.3
2022-12-09T11:45:52.797Z,18.7
2022-12-09T11:50:52.805Z,18.2
2022-12-09T11:55:53.003Z,17.9
2022-12-09T12:00:52.871Z,17.9
2022-12-09T12:05:52.932Z,16.4
2022-12-09T12:10:52.920Z,16.1
2022-12-09T12:15:52.789Z,14.7
2022-12-09T12:20:53.209Z,14.7
2022-12-09T12:25:52.990Z,14.7
2022-12-09T12:30:52.873Z,13.9
2022-12-09T12:35:52.956Z,13.9
2022-12-09T12:40:52.917Z,13.1
2022-12-09T12:45:55.874Z,13.1
2022-12-09T12:50:52.854Z,13.6
2022-12-09T12:55:53.169Z,13.6
2022-12-09T13:00:52.903Z,13.1
2022-12-09T13:05:52.827Z,13.1
2022-12-09T13:10:52.907Z,13.1
2022-12-09T13:15:52.774Z,12.4
2022-12-09T13:20:52.818Z,12.4
2022-12-09T13:25:53.003Z,10.8
2022-12-09T13:30:55.919Z,10.8
2022-12-09T13:35:52.791Z,10.7
2022-12-09T13:40:52.904Z,10.7
2022-12-09T13:45:52.943Z,10.8
2022-12-09T13:50:53.225Z,10.7
2022-12-09T13:55:52.918Z,10.7
2022-12-09T14:00:52.939Z,10.7
2022-12-09T14:05:52.877Z,10.4
2022-12-09T14:10:52.970Z,10.2
2022-12-09T14:15:52.854Z,10.2
2022-12-09T14:20:52.923Z,10.2
2022-12-09T14:25:53.047Z,10.2
2022-12-09T14:30:52.895Z,10.2
2022-12-09T14:35:53.042Z,10.6
2022-12-09T14:40:52.841Z,11.2
2022-12-09T14:45:52.885Z,11.4
2022-12-09T14:50:52.797Z,11.4
2022-12-09T14:55:52.912Z,11.6
2022-12-09T15:00:52.922Z,11.6
2022-12-09T15:05:52.936Z,11.7
2022-12-09T15:10:52.953Z,11.7
2022-12-09T15:25:54.938Z,17.25
2022-12-09T15:30:55.095Z,16.2
2022-12-09T15:35:54.992Z,14.25
2022-12-09T15:40:54.991Z,12.3
2022-12-09T15:45:54.948Z,13.7
2022-12-09T15:50:55.043Z,15.1
2022-12-09T15:55:54.925Z,13.9
2022-12-09T16:00:54.974Z,13.9
2022-12-09T16:05:55.177Z,15.1
2022-12-09T16:10:54.923Z,17.8
2022-12-09T16:15:54.937Z,22.1
2022-12-09T16:20:55.212Z,23.4
2022-12-09T16:25:55.004Z,23.4
2022-12-09T16:30:54.899Z,23.4
2022-12-09T16:41:17.380Z,22.5
2022-12-09T16:46:17.415Z,22.5
2022-12-09T16:51:17.469Z,21.5
2022-12-09T16:56:17.408Z,21.2
2022-12-09T17:01:17.340Z,21.5
2022-12-09T17:06:17.386Z,21.5
2022-12-09T17:11:17.409Z,21.5
2022-12-09T17:16:17.394Z,21.2
2022-12-09T17:21:17.449Z,20.5
2022-12-09T17:26:17.401Z,19.8
2022-12-09T17:31:17.458Z,19.8
2022-12-09T17:36:17.349Z,17.8
2022-12-09T17:41:17.364Z,17.8
2022-12-09T17:46:17.494Z,17.8
2022-12-09T17:51:17.380Z,19.8
2022-12-09T17:56:17.355Z,23.7
2022-12-09T18:01:17.494Z,23.7
2022-12-09T18:06:17.373Z,23.7
2022-12-09T18:11:17.397Z,23.7
2022-12-09T18:16:17.559Z,23.7
2022-12-09T18:21:17.436Z,23.7
2022-12-09T18:26:17.413Z,23.6
2022-12-09T18:31:17.415Z,23
2022-12-09T18:36:17.357Z,23.6
2022-12-09T18:41:17.357Z,23
2022-12-09T18:46:23.942Z,22.2
2022-12-09T18:51:17.374Z,21.7
2022-12-09T18:56:17.500Z,21.7
2022-12-09T19:01:17.436Z,21.7
2022-12-09T19:06:17.407Z,21.9
2022-12-09T19:11:17.429Z,21.9
2022-12-09T19:16:17.327Z,25.6
2022-12-09T19:21:17.431Z,28.2
2022-12-09T19:26:17.412Z,30.3
2022-12-09T19:31:17.327Z,30.9
2022-12-09T19:36:17.323Z,31.4
2022-12-09T19:41:17.464Z,34.8
2022-12-09T19:46:17.727Z,36
2022-12-09T19:51:17.424Z,36
2022-12-09T19:56:17.461Z,36
2022-12-09T20:01:17.440Z,35.4
2022-12-09T20:06:17.289Z,34.8
2022-12-09T20:11:17.447Z,29.4
2022-12-09T20:16:17.486Z,29.4
2022-12-09T20:21:17.446Z,29.4
2022-12-09T20:26:17.331Z,29.4
2022-12-09T20:31:17.472Z,30.7
2022-12-09T20:36:17.414Z,46
2022-12-09T20:41:17.419Z,47.4
2022-12-09T20:46:17.578Z,49.5
2022-12-09T20:51:17.449Z,50
2022-12-09T20:56:17.419Z,57.6
2022-12-09T21:01:17.336Z,57.6
2022-12-09T21:06:17.515Z,50
2022-12-09T21:11:18.545Z,50
2022-12-09T21:16:17.368Z,40.4
2022-12-09T21:21:17.476Z,39.1
2022-12-09T21:26:17.329Z,37.4
2022-12-09T21:31:17.356Z,34.8
2022-12-09T21:36:17.505Z,29
2022-12-09T21:41:17.312Z,29
2022-12-09T21:46:17.453Z,29
2022-12-09T21:51:17.338Z,29
2022-12-09T21:56:17.594Z,29
2022-12-09T22:01:17.407Z,31.7
2022-12-09T22:06:17.486Z,31.7
2022-12-09T22:11:17.504Z,31.7
2022-12-09T22:16:17.565Z,29.6
2022-12-09T22:21:25.433Z,29.6
2022-12-09T22:26:17.363Z,29.6
2022-12-09T22:31:17.470Z,32.5
2022-12-09T22:36:17.357Z,32.7
2022-12-09T22:41:17.373Z,33
2022-12-09T22:46:17.455Z,35.9
2022-12-09T22:51:17.381Z,35.9
2022-12-09T22:56:17.370Z,35.9
2022-12-09T23:01:17.375Z,35.9
2022-12-09T23:06:17.377Z,33.3
2022-12-09T23:11:17.621Z,31.9
2022-12-09T23:16:17.467Z,31.6
2022-12-09T23:21:17.594Z,30.1
2022-12-09T23:26:17.412Z,29.7
2022-12-09T23:31:17.484Z,29.7
2022-12-09T23:36:17.351Z,28.5
2022-12-09T23:41:17.386Z,28.5
2022-12-09T23:56:17.863Z,29.7
